This is the latest recevied weather packets stored in our database for station/object KC1DMA. If no packets are shown the sender has not sent any weather packets the latest 1 day(s).
| Time | Temp. | Humidity | Pressure | Rain* | Wind** | Luminosity | Snow |
|---|---|---|---|---|---|---|---|
| 1778027657 | 16.67° C | 67% | 1012 hPa | - | - | 0 W/m² | - |
| 1778026745 | 17.22° C | 66% | 1011.6 hPa | - | - | 0 W/m² | - |
| 1778025232 | 17.22° C | 65% | 1011.2 hPa | - | - | 3 W/m² | - |
| 1778024626 | 17.78° C | 64% | 1011 hPa | - | - | 7 W/m² | - |
| 1778021901 | 19.44° C | 61% | 1010.6 hPa | - | - | 49 W/m² | - |
| 1778021293 | 20° C | 60% | 1010.2 hPa | - | - | 79 W/m² | - |
| 1778018868 | 20.56° C | 60% | 1010.4 hPa | - | - | 171 W/m² | - |
| 1778017961 | 21.11° C | 58% | 1010.3 hPa | - | - | 202 W/m² | - |
| 1778017053 | 21.67° C | 56% | 1010 hPa | - | - | 296 W/m² | - |
| 1778016750 | 21.11° C | 58% | 1010.3 hPa | - | - | 325 W/m² | - |
| 1778016446 | 21.11° C | 57% | 1010.1 hPa | - | - | 331 W/m² | - |
| 1778015229 | 22.22° C | 56% | 1010.2 hPa | - | - | 251 W/m² | - |
| 1778013109 | 22.78° C | 54% | 1010.2 hPa | - | - | 446 W/m² | - |
| 1778012500 | 22.78° C | 55% | 1010.1 hPa | - | - | 480 W/m² | - |
| 1778012197 | 22.22° C | 55% | 1010.2 hPa | - | - | 506 W/m² | - |
| 1778011895 | 22.22° C | 55% | 1010.3 hPa | - | - | 508 W/m² | - |
| 1778010683 | 22.78° C | 55% | 1010.2 hPa | - | - | 568 W/m² | - |
| 1778010375 | 23.33° C | 55% | 1010.5 hPa | - | - | 600 W/m² | - |
| 1778009768 | 22.22° C | 55% | 1010.6 hPa | - | - | 629 W/m² | - |
| 1778007950 | 22.78° C | 56% | 1010.9 hPa | - | - | 697 W/m² | - |
| 1778007646 | 22.78° C | 54% | 1010.8 hPa | - | - | 706 W/m² | - |
| 1778007343 | 22.78° C | 55% | 1010.8 hPa | - | - | 710 W/m² | - |
| 1778006433 | 22.78° C | 54% | 1011 hPa | - | - | 740 W/m² | - |
| 1778004917 | 23.33° C | 53% | 1010.9 hPa | - | - | 783 W/m² | - |
| 1778003097 | 23.33° C | 54% | 1011.3 hPa | - | - | 816 W/m² | - |
* Rain since midnight (hover to see other rain measurements)
** Current wind speed in m/s (hover to see current wind gust speed)